Time;durP1;ratioP1;P1;durP2;ratioP2;P2;SDS_P1;SDS_P2;PMS_P1;PMS_P2;Temp;Humidity;BMP_temperature;BMP_pressure;BME280_temperature;BME280_humidity;BME280_pressure;Samples;Min_cycle;Max_cycle;Signal;HPM_P1;HPM_P2
2022/06/22 00:00:18;;;;;;;12.57;10.48;;;13.30;99.90;;;;;;4997956;28;20049;-89
2022/06/22 00:02:46;;;;;;;14.50;11.40;;;13.30;99.90;;;;;;5000809;28;20046;-89
2022/06/22 00:05:20;;;;;;;13.52;10.95;;;13.20;99.90;;;;;;4998376;28;20053;-89
2022/06/22 00:07:53;;;;;;;12.63;10.75;;;13.10;99.90;;;;;;4998038;28;20046;-89
2022/06/22 00:10:37;;;;;;;12.63;10.57;;;13.10;99.90;;;;;;4997614;28;20073;-89
2022/06/22 00:13:04;;;;;;;12.57;10.60;;;13.00;99.90;;;;;;4995530;28;20050;-90
2022/06/22 00:15:42;;;;;;;12.82;10.82;;;13.00;99.90;;;;;;4983998;28;20541;-88
2022/06/22 00:18:47;;;;;;;14.18;10.73;;;13.00;99.90;;;;;;4980572;28;20137;-89
2022/06/22 00:21:22;;;;;;;13.40;11.20;;;12.80;99.90;;;;;;4965295;28;20404;-89
2022/06/22 00:23:51;;;;;;;15.27;11.60;;;12.80;99.90;;;;;;4990271;28;20054;-89
2022/06/22 00:26:19;;;;;;;14.05;11.02;;;12.70;99.90;;;;;;5003280;28;20042;-89
2022/06/22 00:28:58;;;;;;;12.85;10.50;;;12.70;99.90;;;;;;4993149;28;20038;-89
2022/06/22 00:31:33;;;;;;;11.77;10.48;;;12.70;99.90;;;;;;4987706;28;20065;-89
2022/06/22 00:34:13;;;;;;;13.15;10.60;;;12.60;99.90;;;;;;4993593;28;20117;-88
2022/06/22 00:36:54;;;;;;;14.60;11.82;;;12.50;99.90;;;;;;4990369;28;20058;-88
2022/06/22 00:39:40;;;;;;;12.80;10.65;;;12.50;99.90;;;;;;4993694;28;20317;-89
2022/06/22 00:42:15;;;;;;;13.50;10.75;;;12.40;99.90;;;;;;4994441;28;20100;-89
2022/06/22 00:45:08;;;;;;;13.80;10.63;;;12.40;99.90;;;;;;5004779;28;20129;-89
2022/06/22 00:47:44;;;;;;;12.95;10.40;;;12.30;99.90;;;;;;4981287;28;20056;-89
2022/06/22 00:50:16;;;;;;;12.63;10.80;;;12.20;99.90;;;;;;4994893;28;20045;-88
2022/06/22 00:52:48;;;;;;;;;;;12.20;99.90;;;;;;4991119;28;20448;-89
2022/06/22 00:55:19;;;;;;;13.00;10.45;;;12.00;99.90;;;;;;4995873;28;19924;-90
2022/06/22 00:57:51;;;;;;;15.02;10.65;;;12.10;99.90;;;;;;5001697;28;20050;-89
2022/06/22 01:00:23;;;;;;;12.52;10.57;;;12.10;99.90;;;;;;5004240;28;20072;-89
2022/06/22 01:02:56;;;;;;;13.95;11.00;;;12.10;99.90;;;;;;4974248;28;20068;-90
2022/06/22 01:05:42;;;;;;;13.52;11.65;;;12.10;99.90;;;;;;4996900;28;20050;-89
2022/06/22 01:08:15;;;;;;;13.63;12.23;;;12.00;99.90;;;;;;5004368;28;20042;-89
2022/06/22 01:10:56;;;;;;;15.60;13.23;;;12.00;99.90;;;;;;4987660;28;20099;-89
2022/06/22 01:13:32;;;;;;;13.85;12.07;;;12.00;99.90;;;;;;4991471;28;20050;-88
2022/06/22 01:16:07;;;;;;;17.02;12.88;;;12.00;99.90;;;;;;4999503;28;20049;-89
2022/06/22 01:18:36;;;;;;;14.10;12.23;;;12.00;99.90;;;;;;4978579;28;20042;-88
2022/06/22 01:21:24;;;;;;;15.15;12.57;;;11.90;99.90;;;;;;4980784;28;20054;-88
2022/06/22 01:24:05;;;;;;;14.82;12.30;;;12.00;99.90;;;;;;4991615;28;20050;-88
2022/06/22 01:26:49;;;;;;;14.38;12.05;;;11.90;99.90;;;;;;4975496;28;20042;-88
2022/06/22 01:29:25;;;;;;;13.93;12.27;;;11.90;99.90;;;;;;4978532;28;20137;-88
2022/06/22 01:32:01;;;;;;;12.90;11.48;;;11.90;99.90;;;;;;4971029;28;20034;-88
2022/06/22 01:34:39;;;;;;;13.38;11.30;;;11.90;99.90;;;;;;4994618;28;20129;-88
2022/06/22 01:37:12;;;;;;;12.85;11.20;;;11.90;99.90;;;;;;4981221;28;20371;-88
2022/06/22 01:39:38;;;;;;;12.90;11.57;;;11.90;99.90;;;;;;4988468;28;20141;-88
2022/06/22 01:42:12;;;;;;;14.15;11.57;;;11.80;99.90;;;;;;4994979;28;20606;-88
2022/06/22 01:44:54;;;;;;;13.88;11.63;;;11.80;99.90;;;;;;5005097;28;20049;-88
2022/06/22 01:47:45;;;;;;;14.02;12.52;;;11.70;99.90;;;;;;5003724;28;20034;-88
2022/06/22 01:50:25;;;;;;;13.45;10.98;;;11.70;99.90;;;;;;4993397;28;20070;-89
2022/06/22 01:52:55;;;;;;;12.73;11.35;;;11.60;99.90;;;;;;4977854;28;20671;-88
2022/06/22 01:55:44;;;;;;;14.52;12.18;;;11.60;99.90;;;;;;5002837;28;20434;-89
2022/06/22 01:58:19;;;;;;;15.05;12.55;;;11.50;99.90;;;;;;4971524;28;20153;-88
2022/06/22 02:00:55;;;;;;;15.98;12.68;;;11.50;99.90;;;;;;4995735;28;20042;-88
2022/06/22 02:03:26;;;;;;;15.07;12.40;;;11.50;99.90;;;;;;4995168;28;20120;-88
2022/06/22 02:07:44;;;;;;;14.45;11.70;;;11.40;99.90;;;;;;4982920;28;20064;-88
2022/06/22 02:08:59;;;;;;;13.88;11.50;;;11.40;99.90;;;;;;5001762;28;20061;-88
2022/06/22 02:11:29;;;;;;;14.27;11.95;;;11.30;99.90;;;;;;4980258;28;20045;-88
2022/06/22 02:14:02;;;;;;;12.80;10.75;;;11.30;99.90;;;;;;4994856;28;20121;-89
2022/06/22 02:16:41;;;;;;;12.07;10.10;;;11.20;99.90;;;;;;4997588;28;20104;-88
2022/06/22 02:19:16;;;;;;;11.20;8.80;;;11.10;99.90;;;;;;4982634;28;20482;-88
2022/06/22 02:21:50;;;;;;;11.90;10.05;;;11.00;99.90;;;;;;4992523;28;20061;-89
2022/06/22 02:24:27;;;;;;;11.90;10.48;;;10.90;99.90;;;;;;4996009;28;20052;-88
2022/06/22 02:27:13;;;;;;;13.98;11.20;;;10.80;99.90;;;;;;4995854;28;20046;-88
2022/06/22 02:29:51;;;;;;;11.60;9.93;;;10.80;99.90;;;;;;4978210;28;20268;-89
2022/06/22 02:32:25;;;;;;;10.98;9.80;;;10.70;99.90;;;;;;4988674;28;20405;-88
2022/06/22 02:34:53;;;;;;;11.77;9.13;;;10.60;99.90;;;;;;5001430;28;20049;-89
2022/06/22 02:37:22;;;;;;;10.55;9.07;;;10.60;99.90;;;;;;4973937;28;20396;-89
2022/06/22 02:39:53;;;;;;;9.75;8.32;;;10.50;99.90;;;;;;4994448;28;20081;-89
2022/06/22 02:45:04;;;;;;;10.52;8.60;;;10.40;99.90;;;;;;4996846;28;20479;-89
2022/06/22 02:47:55;;;;;;;11.63;9.43;;;10.30;99.90;;;;;;5000249;28;20473;-88
2022/06/22 02:50:29;;;;;;;11.13;9.52;;;10.20;99.90;;;;;;4980118;28;20413;-88
2022/06/22 02:53:06;;;;;;;10.43;8.80;;;10.20;99.90;;;;;;5005231;28;20054;-88
2022/06/22 02:55:36;;;;;;;10.10;8.07;;;10.00;99.90;;;;;;4973811;28;20511;-89
2022/06/22 02:58:20;;;;;;;8.80;7.80;;;10.00;99.90;;;;;;5006474;28;20034;-89
2022/06/22 03:00:46;;;;;;;8.77;7.50;;;10.00;99.90;;;;;;5002873;28;20061;-89
2022/06/22 03:03:14;;;;;;;9.32;7.85;;;10.00;99.90;;;;;;4998518;28;20677;-89
2022/06/22 03:05:43;;;;;;;8.75;7.00;;;9.90;99.90;;;;;;4979493;28;20038;-89
2022/06/22 03:08:11;;;;;;;9.48;7.47;;;9.90;99.90;;;;;;4971907;28;20042;-88
2022/06/22 03:10:45;;;;;;;12.30;8.50;;;9.90;99.90;;;;;;4993632;28;20042;-88
2022/06/22 03:13:16;;;;;;;12.68;8.93;;;9.90;99.90;;;;;;4978918;28;20046;-89
2022/06/22 03:15:43;;;;;;;11.80;9.20;;;9.90;99.90;;;;;;4981032;28;20069;-89
2022/06/22 03:18:15;;;;;;;13.18;9.75;;;9.90;99.90;;;;;;4979854;28;20104;-89
2022/06/22 03:21:05;;;;;;;14.38;9.48;;;9.80;99.90;;;;;;5004541;28;20053;-88
2022/06/22 03:24:09;;;;;;;14.03;9.90;;;9.80;99.90;;;;;;5021970;28;20375;-88
2022/06/22 03:26:42;;;;;;;11.52;8.73;;;9.70;99.90;;;;;;4994010;28;20493;-88
2022/06/22 03:29:33;;;;;;;13.68;9.18;;;9.70;99.90;;;;;;4988135;28;20092;-87
2022/06/22 03:32:08;;;;;;;11.68;9.30;;;9.70;99.90;;;;;;4981135;28;20053;-87
2022/06/22 03:34:40;;;;;;;11.95;9.15;;;9.60;99.90;;;;;;4997740;28;20092;-88
2022/06/22 03:37:12;;;;;;;12.32;9.50;;;9.60;99.90;;;;;;4984356;28;20050;-89
2022/06/22 03:39:42;;;;;;;12.90;9.68;;;9.50;99.90;;;;;;4994981;28;20046;-87
2022/06/22 03:42:27;;;;;;;13.57;11.43;;;9.50;99.90;;;;;;4998039;28;20360;-87
2022/06/22 03:45:14;;;;;;;13.77;11.05;;;9.50;99.90;;;;;;4991797;28;20061;-88
2022/06/22 03:48:05;;;;;;;12.75;10.52;;;9.50;99.90;;;;;;4999347;28;20375;-88
2022/06/22 03:50:56;;;;;;;13.60;11.40;;;9.60;99.90;;;;;;4996661;28;20057;-87
2022/06/22 03:53:30;;;;;;;17.05;13.10;;;9.60;99.90;;;;;;4980956;28;20052;-88
2022/06/22 03:56:04;;;;;;;16.25;12.90;;;9.70;99.90;;;;;;4999034;28;20049;-88
2022/06/22 03:58:29;;;;;;;16.35;13.90;;;9.80;99.90;;;;;;4998173;28;20057;-88
2022/06/22 04:00:55;;;;;;;18.00;14.93;;;9.90;99.90;;;;;;5009960;28;20050;-87
2022/06/22 04:03:21;;;;;;;18.75;15.20;;;9.90;99.90;;;;;;4990473;28;20774;-88
2022/06/22 04:05:53;;;;;;;17.63;14.90;;;10.00;99.90;;;;;;4988051;28;20136;-87
2022/06/22 04:08:28;;;;;;;21.80;15.13;;;10.10;99.90;;;;;;4996664;28;20041;-87
2022/06/22 04:10:59;;;;;;;18.73;14.98;;;10.20;99.90;;;;;;4982966;28;20402;-87
2022/06/22 04:13:41;;;;;;;18.75;15.02;;;10.20;99.90;;;;;;4987621;28;20058;-88
2022/06/22 04:16:14;;;;;;;17.45;14.52;;;10.30;99.90;;;;;;4998954;28;20437;-87
2022/06/22 04:18:54;;;;;;;16.92;15.13;;;10.30;99.90;;;;;;4994238;28;20052;-87
2022/06/22 04:21:29;;;;;;;17.65;15.38;;;10.40;99.90;;;;;;4975159;28;20070;-88
2022/06/22 04:24:11;;;;;;;18.75;16.17;;;10.50;99.90;;;;;;4996078;28;20054;-87
2022/06/22 04:26:48;;;;;;;19.15;16.17;;;10.60;99.90;;;;;;4983978;28;20046;-87
2022/06/22 04:29:43;;;;;;;20.23;16.92;;;10.70;99.90;;;;;;4996125;28;20450;-88
2022/06/22 04:32:18;;;;;;;20.70;17.15;;;10.80;99.90;;;;;;4997227;28;20129;-89
2022/06/22 04:34:56;;;;;;;19.42;17.20;;;10.90;99.90;;;;;;4995297;28;20394;-86
2022/06/22 04:37:36;;;;;;;21.05;17.75;;;11.10;99.90;;;;;;4982129;28;20498;-89
2022/06/22 04:40:29;;;;;;;20.83;17.05;;;11.20;99.90;;;;;;4993442;28;20442;-86
2022/06/22 04:42:58;;;;;;;20.45;17.45;;;11.30;99.90;;;;;;4991707;28;20541;-88
2022/06/22 04:45:30;;;;;;;20.38;17.50;;;11.40;99.90;;;;;;4994402;28;20074;-89
2022/06/22 04:48:16;;;;;;;19.30;17.08;;;11.50;99.90;;;;;;4997743;28;20034;-89
2022/06/22 04:50:44;;;;;;;21.27;18.00;;;11.60;99.90;;;;;;4990057;28;20054;-88
2022/06/22 04:53:21;;;;;;;20.77;17.98;;;11.80;99.90;;;;;;4998095;28;20054;-89
2022/06/22 04:55:48;;;;;;;21.92;17.08;;;11.90;99.90;;;;;;4993024;28;20046;-89
2022/06/22 04:58:54;;;;;;;20.45;16.85;;;12.00;99.90;;;;;;4999251;28;20458;-90
2022/06/22 05:01:22;;;;;;;20.90;17.23;;;12.20;99.90;;;;;;4984539;28;20402;-90
2022/06/22 05:03:51;;;;;;;18.13;15.82;;;12.30;99.90;;;;;;4997350;28;20047;-89
2022/06/22 05:07:16;;;;;;;19.10;16.70;;;12.40;99.90;;;;;;4987603;28;20034;-88
2022/06/22 05:10:00;;;;;;;18.15;16.00;;;12.50;99.90;;;;;;4923291;29;20047;-89
2022/06/22 05:12:29;;;;;;;19.25;15.75;;;12.60;99.90;;;;;;4943412;28;20047;-89
2022/06/22 05:14:57;;;;;;;19.77;16.30;;;12.70;99.90;;;;;;4928976;29;20050;-88
2022/06/22 05:17:34;;;;;;;18.63;16.30;;;12.80;99.90;;;;;;4902931;29;20527;-88
2022/06/22 05:20:10;;;;;;;20.55;16.77;;;12.90;99.90;;;;;;4929236;29;20586;-89
2022/06/22 05:22:36;;;;;;;21.48;16.50;;;13.00;99.90;;;;;;4941634;29;20063;-88
2022/06/22 05:25:05;;;;;;;20.70;17.58;;;13.10;99.90;;;;;;4930194;29;20059;-89
2022/06/22 05:27:44;;;;;;;20.98;18.48;;;13.30;99.90;;;;;;4941900;29;20096;-89
2022/06/22 05:30:10;;;;;;;20.45;17.10;;;13.40;99.90;;;;;;4929019;29;20055;-90
2022/06/22 05:32:46;;;;;;;21.83;17.98;;;13.50;99.90;;;;;;4928096;29;20047;-90
2022/06/22 05:35:17;;;;;;;20.15;17.35;;;13.70;99.90;;;;;;4922487;29;20043;-92
2022/06/22 05:37:50;;;;;;;19.27;16.95;;;13.80;99.90;;;;;;4922610;29;20047;-91
2022/06/22 05:40:18;;;;;;;20.55;18.02;;;14.00;99.90;;;;;;4943350;29;20063;-90
2022/06/22 05:42:44;;;;;;;19.88;17.75;;;14.10;99.90;;;;;;4950209;28;20058;-91
2022/06/22 05:45:16;;;;;;;19.48;16.77;;;14.20;99.90;;;;;;4996090;28;20134;-92
2022/06/22 05:47:43;;;;;;;19.05;16.20;;;14.40;99.90;;;;;;4977171;28;20129;-92
2022/06/22 05:50:18;;;;;;;18.35;16.10;;;14.50;99.90;;;;;;5001434;28;20121;-91
2022/06/22 05:52:55;;;;;;;17.60;14.90;;;14.60;99.90;;;;;;4984438;28;20370;-92
2022/06/22 05:55:54;;;;;;;17.75;15.38;;;14.80;99.90;;;;;;4999550;28;20260;-92
2022/06/22 05:58:26;;;;;;;19.35;14.80;;;14.90;99.90;;;;;;4983038;28;20053;-91
2022/06/22 06:00:54;;;;;;;17.02;15.02;;;15.10;99.90;;;;;;4998041;28;20107;-90
2022/06/22 06:04:06;;;;;;;17.75;14.60;;;15.20;99.90;;;;;;4996199;28;20046;-93
2022/06/22 06:06:37;;;;;;;17.35;14.68;;;15.30;99.90;;;;;;4887142;29;20057;-92
2022/06/22 06:09:11;;;;;;;18.63;15.27;;;15.50;99.90;;;;;;4889613;29;20084;-93
2022/06/22 06:11:41;;;;;;;18.02;14.77;;;15.60;99.90;;;;;;4879607;29;20063;-93
2022/06/22 06:14:26;;;;;;;17.30;14.90;;;15.70;99.90;;;;;;4896590;29;20048;-91
2022/06/22 06:16:56;;;;;;;18.55;15.30;;;15.80;99.90;;;;;;4887256;29;20123;-92
2022/06/22 06:19:28;;;;;;;15.75;13.30;;;16.10;99.90;;;;;;4887806;29;20135;-93
2022/06/22 06:21:57;;;;;;;15.32;13.50;;;16.10;99.90;;;;;;4884282;29;20500;-91
2022/06/22 06:24:28;;;;;;;15.52;12.35;;;16.10;99.90;;;;;;4878708;29;20064;-92
2022/06/22 06:29:56;;;;;;;14.13;11.93;;;16.40;99.90;;;;;;4907723;29;20350;-95
2022/06/22 06:32:43;;;;;;;11.95;9.70;;;16.60;99.90;;;;;;4906244;29;20167;-91
2022/06/22 06:35:36;;;;;;;11.45;8.55;;;16.60;99.90;;;;;;4907207;29;20043;-90
2022/06/22 06:38:23;;;;;;;12.05;8.93;;;16.80;99.90;;;;;;4979791;28;20050;-91
2022/06/22 06:41:05;;;;;;;12.63;8.38;;;16.80;99.90;;;;;;5000294;28;20069;-90
2022/06/22 06:44:13;;;;;;;11.50;7.45;;;16.80;99.90;;;;;;4981100;28;20044;-95
2022/06/22 06:46:42;;;;;;;12.07;7.03;;;16.90;99.90;;;;;;4931839;28;20043;-93
2022/06/22 06:49:27;;;;;;;10.68;7.13;;;17.00;99.90;;;;;;4949990;28;20085;-93
2022/06/22 06:52:03;;;;;;;10.30;7.30;;;17.10;99.90;;;;;;4924004;28;20130;-90
2022/06/22 06:54:39;;;;;;;11.13;6.28;;;17.20;99.90;;;;;;4931542;28;20551;-94
2022/06/22 06:57:10;;;;;;;10.23;6.20;;;17.30;99.90;;;;;;4973814;28;20154;-95
2022/06/22 06:59:39;;;;;;;10.70;5.70;;;17.30;99.90;;;;;;4950784;28;20068;-94
2022/06/22 07:02:24;;;;;;;8.57;5.20;;;17.30;99.90;;;;;;4929826;28;20507;-94
2022/06/22 07:04:50;;;;;;;9.63;5.43;;;17.40;99.90;;;;;;4936598;28;20144;-92
2022/06/22 07:07:46;;;;;;;8.38;4.20;;;17.40;99.90;;;;;;4958321;28;20054;-94
2022/06/22 07:10:37;;;;;;;8.35;4.15;;;17.50;99.90;;;;;;4964621;28;20046;-93
2022/06/22 07:13:27;;;;;;;6.65;3.45;;;17.60;99.90;;;;;;4946278;28;20050;-92
2022/06/22 07:16:00;;;;;;;8.02;3.63;;;17.70;99.90;;;;;;4968558;28;20078;-93
2022/06/22 07:18:36;;;;;;;7.63;3.38;;;17.80;99.90;;;;;;4932908;28;20061;-94
2022/06/22 07:21:54;;;;;;;7.75;3.70;;;17.90;99.90;;;;;;4971999;28;20054;-95
2022/06/22 07:24:24;;;;;;;7.97;3.72;;;18.00;99.90;;;;;;4967152;28;20047;-93
2022/06/22 07:26:57;;;;;;;9.97;3.50;;;18.00;99.90;;;;;;4951193;28;20055;-94
2022/06/22 07:29:49;;;;;;;6.85;3.22;;;18.00;99.90;;;;;;4952905;28;20068;-96
2022/06/22 07:32:32;;;;;;;;;;;18.10;99.90;;;;;;4966828;28;20083;-95
2022/06/22 07:35:15;;;;;;;6.85;3.00;;;18.00;99.90;;;;;;4952723;28;20006;-96
2022/06/22 07:37:50;;;;;;;8.30;3.60;;;18.20;99.90;;;;;;4944708;28;20179;-93
2022/06/22 07:40:21;;;;;;;5.43;3.00;;;18.20;99.90;;;;;;4947800;28;20082;-95
2022/06/22 07:42:50;;;;;;;7.35;3.10;;;18.30;99.90;;;;;;4944137;28;20042;-96
2022/06/22 07:45:19;;;;;;;7.00;3.13;;;18.40;99.90;;;;;;4949009;28;20053;-95
2022/06/22 07:47:55;;;;;;;7.35;2.90;;;18.40;99.90;;;;;;4932900;28;20049;-95
2022/06/22 07:50:33;;;;;;;8.82;3.40;;;18.50;99.90;;;;;;4951207;28;20435;-91
2022/06/22 07:53:17;;;;;;;6.32;2.95;;;18.50;99.90;;;;;;4944715;28;20043;-92
2022/06/22 07:56:06;;;;;;;7.03;3.20;;;18.60;99.90;;;;;;4930845;28;20039;-93
2022/06/22 07:58:40;;;;;;;6.90;2.80;;;18.70;99.90;;;;;;4954738;28;20043;-95
2022/06/22 08:01:15;;;;;;;7.72;3.00;;;18.70;99.90;;;;;;4979868;28;20099;-93
2022/06/22 08:03:49;;;;;;;7.20;2.85;;;18.70;99.80;;;;;;4979182;28;20057;-95
2022/06/22 08:06:33;;;;;;;6.07;2.70;;;18.70;99.20;;;;;;4995484;28;20053;-95
2022/06/22 08:09:20;;;;;;;6.72;2.95;;;18.80;98.70;;;;;;4991797;28;20056;-93
2022/06/22 08:12:09;;;;;;;8.50;3.70;;;18.90;99.20;;;;;;5002060;28;20309;-96
2022/06/22 08:14:40;;;;;;;6.93;3.13;;;18.90;99.90;;;;;;4982216;28;20574;-95
2022/06/22 08:17:14;;;;;;;6.25;3.08;;;19.00;99.50;;;;;;5003380;28;20042;-93
2022/06/22 08:19:41;;;;;;;6.70;3.15;;;19.00;98.60;;;;;;4997171;28;20045;-90
2022/06/22 08:22:11;;;;;;;7.07;2.70;;;19.00;97.70;;;;;;5009485;28;20442;-96
2022/06/22 08:24:41;;;;;;;7.88;3.00;;;19.10;97.60;;;;;;5000203;28;20129;-95
2022/06/22 08:27:13;;;;;;;6.15;2.90;;;19.00;98.00;;;;;;5007490;28;20500;-95
2022/06/22 08:29:39;;;;;;;6.22;2.85;;;19.10;98.20;;;;;;4977250;28;20050;-92
2022/06/22 08:32:24;;;;;;;6.68;2.40;;;19.20;97.20;;;;;;4997669;28;20045;-92
2022/06/22 08:34:54;;;;;;;6.60;2.70;;;19.30;95.00;;;;;;4982025;28;20056;-91
2022/06/22 08:37:31;;;;;;;5.93;2.75;;;19.40;96.20;;;;;;4999289;28;20030;-93
2022/06/22 08:40:17;;;;;;;6.97;2.55;;;19.30;95.40;;;;;;4976498;28;20053;-92
2022/06/22 08:43:24;;;;;;;6.93;2.25;;;19.30;92.40;;;;;;4999296;28;20049;-94
2022/06/22 08:46:13;;;;;;;6.15;2.30;;;19.30;94.00;;;;;;4999614;28;20045;-95
2022/06/22 08:49:20;;;;;;;6.05;2.33;;;19.50;93.90;;;;;;4979772;28;20073;-94
2022/06/22 08:51:54;;;;;;;8.00;2.50;;;19.50;91.90;;;;;;4991468;28;20050;-93
2022/06/22 08:54:27;;;;;;;7.07;2.33;;;19.50;92.10;;;;;;5002732;28;20049;-90
2022/06/22 08:56:53;;;;;;;5.15;2.20;;;19.60;91.10;;;;;;5001493;28;20126;-94
2022/06/22 08:59:32;;;;;;;6.18;2.15;;;19.60;91.90;;;;;;5009586;28;20160;-92
2022/06/22 09:02:19;;;;;;;7.47;2.67;;;19.60;91.10;;;;;;5007904;28;20049;-90
2022/06/22 09:05:03;;;;;;;5.65;2.50;;;19.60;90.60;;;;;;5025048;28;20049;-89
2022/06/22 09:08:07;;;;;;;7.13;2.53;;;19.60;91.30;;;;;;4994545;28;20037;-95
2022/06/22 09:10:32;;;;;;;6.38;2.30;;;19.70;90.90;;;;;;5000395;28;20414;-90
2022/06/22 09:13:36;;;;;;;7.53;2.80;;;19.80;90.60;;;;;;5000853;28;20045;-90
2022/06/22 09:16:25;;;;;;;6.97;2.15;;;19.90;88.40;;;;;;5002919;28;20050;-90
2022/06/22 09:19:16;;;;;;;6.88;2.72;;;19.90;86.50;;;;;;4997241;28;20046;-93
2022/06/22 09:22:13;;;;;;;5.32;2.47;;;20.00;85.80;;;;;;4992108;28;20077;-90
2022/06/22 09:25:01;;;;;;;5.57;2.30;;;20.00;89.90;;;;;;4988558;28;20061;-92
2022/06/22 09:27:52;;;;;;;6.18;2.13;;;20.00;87.10;;;;;;5002972;28;20116;-93
2022/06/22 09:30:22;;;;;;;5.72;2.05;;;20.00;87.00;;;;;;4999077;28;20045;-88
2022/06/22 09:33:06;;;;;;;5.53;2.47;;;20.10;85.30;;;;;;5004630;28;20487;-85
2022/06/22 09:36:05;;;;;;;8.75;2.60;;;20.10;86.10;;;;;;5001672;28;20244;-86
2022/06/22 09:39:08;;;;;;;8.10;2.90;;;20.10;89.50;;;;;;5021321;28;20168;-87
2022/06/22 09:42:04;;;;;;;8.70;3.10;;;20.00;90.70;;;;;;4997112;28;20125;-86
2022/06/22 09:44:44;;;;;;;7.50;2.92;;;20.20;91.10;;;;;;4997035;28;20042;-89
2022/06/22 09:47:26;;;;;;;8.75;3.38;;;20.20;91.20;;;;;;4996262;28;20147;-86
2022/06/22 09:50:10;;;;;;;8.63;3.20;;;20.40;91.30;;;;;;4995646;28;20038;-84
2022/06/22 09:52:41;;;;;;;8.45;3.45;;;20.40;90.60;;;;;;4980893;28;20049;-88
2022/06/22 09:58:34;;;;;;;8.63;3.75;;;20.50;89.80;;;;;;4999391;28;20050;-85
2022/06/22 10:01:37;;;;;;;6.90;3.20;;;20.50;90.40;;;;;;5022025;28;20116;-89
2022/06/22 10:04:31;;;;;;;7.70;3.28;;;20.60;90.30;;;;;;5001406;28;20042;-88
2022/06/22 10:07:27;;;;;;;7.90;3.08;;;20.60;90.20;;;;;;5003239;28;20053;-91
2022/06/22 10:10:14;;;;;;;5.93;2.92;;;20.60;89.70;;;;;;5002818;28;20136;-88
2022/06/22 10:12:56;;;;;;;4.85;2.38;;;20.60;81.30;;;;;;4994320;28;20375;-90
2022/06/22 10:15:58;;;;;;;6.57;2.80;;;20.80;83.90;;;;;;5000995;28;20049;-84
2022/06/22 10:18:37;;;;;;;6.50;2.90;;;20.90;85.20;;;;;;5020856;28;20521;-88
2022/06/22 10:21:42;;;;;;;7.35;2.80;;;21.00;86.50;;;;;;4995263;28;20089;-89
2022/06/22 10:24:13;;;;;;;6.00;2.80;;;21.10;85.00;;;;;;5003756;28;20524;-87
2022/06/22 10:27:09;;;;;;;8.05;2.70;;;21.10;83.50;;;;;;4989992;28;20046;-89
2022/06/22 10:30:15;;;;;;;7.18;2.67;;;21.10;77.40;;;;;;4999439;28;20050;-89
2022/06/22 10:33:03;;;;;;;5.93;2.60;;;21.10;79.00;;;;;;4983448;28;20045;-88
2022/06/22 10:35:57;;;;;;;8.07;2.92;;;21.10;80.40;;;;;;4992734;28;20513;-90
2022/06/22 10:38:42;;;;;;;6.32;2.70;;;21.10;79.70;;;;;;5021449;28;20125;-87
2022/06/22 10:47:43;;;;;;;7.00;2.80;;;21.10;79.00;;;;;;4996409;28;20551;-85
2022/06/22 10:50:48;;;;;;;6.57;2.80;;;21.20;81.20;;;;;;4997614;28;20065;-90
2022/06/22 10:53:55;;;;;;;7.65;2.60;;;21.30;78.80;;;;;;4996699;28;20038;-90
2022/06/22 10:56:48;;;;;;;6.22;2.47;;;21.30;79.50;;;;;;4996512;28;20056;-87
2022/06/22 10:59:13;;;;;;;8.35;3.05;;;21.20;79.70;;;;;;4995666;28;20051;-90
2022/06/22 11:01:44;;;;;;;8.10;3.08;;;21.30;80.80;;;;;;4985952;28;20402;-91
2022/06/22 11:04:48;;;;;;;5.50;2.50;;;21.30;80.50;;;;;;5020357;28;20054;-88
2022/06/22 11:07:44;;;;;;;8.77;2.88;;;21.40;82.10;;;;;;4998378;28;20081;-87
2022/06/22 11:10:51;;;;;;;6.55;2.30;;;21.40;79.40;;;;;;4994467;28;20096;-87
2022/06/22 11:13:41;;;;;;;5.97;2.50;;;21.50;80.50;;;;;;4996651;28;20129;-89
2022/06/22 11:16:34;;;;;;;8.40;3.60;;;21.50;78.10;;;;;;4999601;28;20451;-92
2022/06/22 11:19:18;;;;;;;6.25;2.40;;;21.50;75.60;;;;;;4994329;28;20449;-93
2022/06/22 11:22:22;;;;;;;5.93;2.72;;;21.50;77.10;;;;;;5002237;28;20079;-88
2022/06/22 11:25:16;;;;;;;5.93;2.42;;;21.60;74.90;;;;;;4991666;28;20108;-89
2022/06/22 11:31:17;;;;;;;7.70;3.05;;;21.50;76.70;;;;;;4994899;28;20158;-87
2022/06/22 11:34:13;;;;;;;7.07;3.58;;;21.60;75.80;;;;;;4992005;28;20437;-90
2022/06/22 11:36:58;;;;;;;7.13;2.50;;;21.70;72.50;;;;;;4997672;28;20058;-87
2022/06/22 11:39:51;;;;;;;5.75;2.20;;;21.70;74.20;;;;;;4996592;28;20046;-89
2022/06/22 11:42:41;;;;;;;6.45;2.50;;;21.70;78.80;;;;;;5020295;28;20042;-88
2022/06/22 11:45:51;;;;;;;5.63;2.40;;;21.70;73.20;;;;;;4976497;28;20167;-89
2022/06/22 11:48:56;;;;;;;5.18;2.15;;;21.70;76.10;;;;;;4989907;28;20043;-88
2022/06/22 11:51:52;;;;;;;6.00;2.30;;;21.70;72.70;;;;;;4979342;28;20046;-87
2022/06/22 11:54:55;;;;;;;5.22;2.05;;;21.80;71.30;;;;;;4993481;28;20794;-85
2022/06/22 11:57:24;;;;;;;6.13;2.30;;;21.90;74.70;;;;;;5018276;28;20378;-89
2022/06/22 12:00:10;;;;;;;7.00;2.78;;;21.90;72.80;;;;;;4978753;28;20136;-88
2022/06/22 12:02:49;;;;;;;5.43;2.47;;;22.00;72.30;;;;;;4999140;28;21014;-89
2022/06/22 12:05:26;;;;;;;5.57;2.30;;;22.00;71.40;;;;;;4998639;28;20104;-87
2022/06/22 12:08:01;;;;;;;7.07;2.70;;;22.00;69.00;;;;;;4997139;28;20064;-88
2022/06/22 12:10:45;;;;;;;5.70;2.47;;;22.00;69.30;;;;;;4997343;28;20093;-89
2022/06/22 12:13:14;;;;;;;5.45;2.40;;;21.90;72.50;;;;;;5001162;28;20054;-89
2022/06/22 12:16:16;;;;;;;6.82;2.40;;;21.90;73.80;;;;;;4990913;28;20072;-89
2022/06/22 12:18:47;;;;;;;6.07;2.20;;;22.00;74.20;;;;;;4999545;28;20053;-87
2022/06/22 12:22:00;;;;;;;6.85;2.42;;;22.00;74.20;;;;;;4991523;28;20050;-87
2022/06/22 12:24:42;;;;;;;5.70;2.40;;;22.10;71.90;;;;;;4994836;28;20045;-87
2022/06/22 12:27:36;;;;;;;5.43;2.42;;;22.10;71.80;;;;;;4991312;28;20050;-86
2022/06/22 12:30:37;;;;;;;4.63;2.20;;;22.10;70.30;;;;;;4997717;28;20104;-88
2022/06/22 12:33:26;;;;;;;5.57;2.10;;;22.10;72.70;;;;;;4997952;28;20050;-87
2022/06/22 12:36:04;;;;;;;6.57;2.25;;;22.10;73.80;;;;;;4996701;28;20053;-86
2022/06/22 12:38:44;;;;;;;7.43;2.22;;;22.20;71.90;;;;;;4992834;28;20418;-88
2022/06/22 12:41:37;;;;;;;5.85;2.33;;;22.30;72.60;;;;;;4997920;28;20053;-87
2022/06/22 12:44:17;;;;;;;4.65;2.20;;;22.40;72.40;;;;;;5021005;28;20053;-86
2022/06/22 12:46:59;;;;;;;6.72;2.38;;;22.40;74.30;;;;;;4994539;28;20317;-87
2022/06/22 12:49:43;;;;;;;7.05;2.38;;;22.30;74.80;;;;;;4989069;28;20054;-88
2022/06/22 12:52:21;;;;;;;5.38;1.90;;;22.30;74.60;;;;;;4991186;28;20046;-87
2022/06/22 12:54:55;;;;;;;4.75;2.03;;;22.30;74.00;;;;;;4995735;28;20057;-86
2022/06/22 12:57:25;;;;;;;6.38;2.28;;;22.30;71.20;;;;;;4993258;28;20123;-86
2022/06/22 13:00:09;;;;;;;6.53;2.10;;;22.30;72.20;;;;;;4994856;28;20054;-88
2022/06/22 13:02:36;;;;;;;6.97;2.60;;;22.40;72.20;;;;;;4997678;28;20076;-86
2022/06/22 13:05:13;;;;;;;5.82;2.00;;;22.50;70.70;;;;;;5018989;28;20049;-90
2022/06/22 13:07:57;;;;;;;7.80;2.75;;;22.60;70.30;;;;;;4995736;28;20034;-88
2022/06/22 13:10:25;;;;;;;5.15;2.45;;;22.60;68.60;;;;;;5000965;28;20046;-88
2022/06/22 13:12:51;;;;;;;6.10;2.40;;;22.60;68.80;;;;;;5000849;28;20046;-87
2022/06/22 13:15:27;;;;;;;7.60;2.65;;;22.60;68.90;;;;;;4995322;28;20096;-89
2022/06/22 13:18:24;;;;;;;4.75;2.10;;;22.60;67.90;;;;;;4997688;28;20080;-90
2022/06/22 13:21:20;;;;;;;5.15;2.08;;;22.50;70.60;;;;;;4998265;28;20124;-88
2022/06/22 13:24:23;;;;;;;5.03;2.03;;;22.50;70.00;;;;;;4996338;28;20046;-88
2022/06/22 13:27:23;;;;;;;5.60;2.17;;;22.50;67.20;;;;;;4994003;28;20076;-88
2022/06/22 13:29:57;;;;;;;4.88;2.20;;;22.50;65.80;;;;;;4979822;28;20116;-89
2022/06/22 13:32:26;;;;;;;7.38;2.33;;;22.50;69.40;;;;;;5017049;28;20054;-90
2022/06/22 13:34:56;;;;;;;6.13;2.30;;;22.60;68.40;;;;;;4996176;28;20061;-85
2022/06/22 13:37:40;;;;;;;6.18;2.50;;;22.70;69.60;;;;;;4980883;28;20041;-91
2022/06/22 13:40:37;;;;;;;5.57;2.60;;;22.70;69.20;;;;;;5004305;28;20046;-88
2022/06/22 13:43:31;;;;;;;7.00;2.40;;;22.70;70.80;;;;;;4997361;28;20096;-92
2022/06/22 13:46:22;;;;;;;7.63;3.80;;;22.70;71.50;;;;;;4997990;28;20046;-87
2022/06/22 13:48:57;;;;;;;;;;;22.80;69.90;;;;;;4999492;28;20116;-89
2022/06/22 13:51:40;;;;;;;6.60;2.58;;;22.70;72.70;;;;;;5000847;28;20297;-92
2022/06/22 13:54:29;;;;;;;6.50;2.90;;;22.70;72.90;;;;;;4998369;28;20045;-90
2022/06/22 13:57:33;;;;;;;5.68;2.40;;;22.80;70.90;;;;;;4993541;28;20042;-90
2022/06/22 14:00:21;;;;;;;6.43;2.80;;;22.90;71.50;;;;;;4982979;28;20050;-87
2022/06/22 14:02:58;;;;;;;6.75;3.08;;;22.90;71.30;;;;;;4992910;28;20065;-88
2022/06/22 14:05:40;;;;;;;6.82;3.15;;;22.90;73.10;;;;;;4995606;28;20096;-91
2022/06/22 14:08:24;;;;;;;7.13;2.60;;;22.90;72.50;;;;;;4999862;28;20041;-88